首页
METAR-TAF:

METAR-TAF

机场 :

邁亞密國際機場

迈阿密, 佛罗里达州, 美国

纬度: 25-47-26N, 经度: 080-18-59W, 海拔: 3米

当前天气观测

该预报发布于1小时和0分钟前的23:53 UTC
风速10节,风向东转东南
温度 29°C
湿度 74%
气压 1017 hPa
能見度: 16.1公里
散云层高于2600英尺
多云层高于25000英尺

METAR: KMIA 152353Z 12010KT 10SM SCT026 BKN250 29/24 A3002 RMK AO2 SLP167 CB DSNT SW AND NW T02940244 10311 20294 53004

时间: 20:53 (00:53 UTC)

预报

该预报发布于1小时和33分钟前的23:20 UTC
预报有效从16日的 00点(UTC)到 17日的 06点(UTC)
风速10节,风向东转东南
能見度: 10公里
散云层高于3000英尺
散云层高于5000英尺
多云层高于25000英尺
从 16日的 0200点(UTC)
风速7节,风向东转东南
能見度: 10公里
少量云层高于3000英尺
散云层高于6000英尺
从 16日的 0600点(UTC)
风速4节,风向多变
能見度: 10公里
散云层高于6000英尺
散云层高于25000英尺
从 16日的 1500点(UTC)
风速10节,风向东转东南
能見度: 10公里
散云层高于3000英尺
多云层高于5000英尺
从 17日的 0000点(UTC)
风速6节,风向
能見度: 10公里
散云层高于5000英尺

TAF: KMIA 152320Z 1600/1706 11010KT P6SM SCT030 SCT050 BKN250 FM160200 11007KT P6SM FEW030 SCT060 FM160600 VRB04KT P6SM SCT060 SCT250 FM161500 11010KT P6SM SCT030 BKN050 FM170000 10006KT P6SM SCT050

超过4000个机场的气象观测和天气预报(METAR&TAF报告)。

可查询的气象台以黄色和红色小点在地图上表示。

将鼠标移到小点上方,可查看气象台名称。

然后点击查看天气观测和预报。

如需切换地图:点击带黑十字的绿色按钮放大地图;点击带横线的绿色按钮缩小地图;或者点击绿色箭头查看邻近地区的地图。


METAR-TAF: